Latest Weather Observations for Mildura

IDV60801

Issued at 4:31 pm EDT Monday 8 February 2016 (issued every 30 minutes, with the page automatically refreshed every 10 minutes)

About weather observations | Map of weather stations | Latest weather observations for VIC | Other Formats
Station Details ID: 076031 Name: MILDURA AIRPORT Lat: -34.24 Lon: 142.09 Height: 50.0 m
Data from the previous 72 hours. | See also: Recent months at Mildura
Date/Time
EDT
Temp
°C
App
Temp
°C
Dew
Point
Rel
Hum
%
Delta-T
°C
Wind Press
QNH
hPa
Press
MSL
hPa
Rain
since 9 am
mm
Dir
 
Spd
km/h
Gust
km/h
Spd
kts
Gust
kts
08/04:30pm 36.7 33.7 5.9 15 16.9 SE 11 26 6 14 1015.8 1015.6 0.0
08/04:00pm 37.0 33.8 7.0 16 16.7 SE 13 24 7 13 1016.1 1015.9 0.0
08/03:30pm 36.6 33.6 7.6 17 16.3 S 13 20 7 11 1016.5 1016.3 0.0
08/03:00pm 36.1 33.7 8.8 19 15.6 SSE 11 20 6 11 1016.8 1016.6 0.0
08/02:30pm 35.8 33.4 10.1 21 15.0 SE 13 26 7 14 1017.1 1016.9 0.0
08/02:00pm 35.0 32.6 10.1 22 14.4 SSW 13 20 7 11 1017.4 1017.2 0.0
08/01:30pm 34.4 32.6 10.9 24 13.8 SSE 11 19 6 10 1017.9 1017.6 0.0
08/01:00pm 34.0 32.9 10.6 24 13.6 W 7 17 4 9 1018.3 1018.0 0.0
08/12:30pm 33.0 31.6 10.9 26 12.9 SW 9 15 5 8 1018.7 1018.4 0.0
08/12:00pm 31.6 31.1 11.9 30 11.6 SSW 6 11 3 6 1018.9 1018.6 0.0
08/11:30am 30.6 29.8 13.0 34 10.5 SE 9 17 5 9 1018.9 1018.6 0.0
08/11:00am 28.9 27.7 12.8 37 9.5 SE 11 17 6 9 1019.1 1018.8 0.0
08/10:30am 27.4 25.7 12.6 40 8.6 SE 13 20 7 11 1019.2 1018.9 0.0
08/10:00am 25.8 24.1 12.3 43 7.8 SE 13 19 7 10 1019.3 1019.0 0.0
08/09:30am 24.7 23.0 12.3 46 7.1 SE 13 20 7 11 1019.2 1018.9 0.0
08/09:00am 23.9 21.2 12.8 49 6.4 SSE 19 24 10 13 1019.1 1018.8 0.0
08/08:30am 22.5 20.3 12.2 52 5.8 SSE 15 22 8 12 1019.0 1018.7 0.0
08/08:00am 21.5 19.3 12.1 55 5.3 S 15 24 8 13 1018.7 1018.4 0.0
08/07:30am 20.8 18.9 11.7 56 5.1 S 13 20 7 11 1018.4 1018.1 0.0
08/07:00am 20.6 19.0 11.5 56 5.0 SSE 11 15 6 8 1018.0 1017.7 0.0
08/06:30am 21.3 19.3 11.6 54 5.4 S 13 19 7 10 1017.5 1017.3 0.0
08/06:00am 21.8 19.8 11.5 52 5.7 S 13 20 7 11 1017.3 1017.1 0.0
08/05:30am 22.3 20.3 11.4 50 6.1 S 13 19 7 10 1017.1 1016.9 0.0
08/05:00am 22.9 20.1 11.3 48 6.5 S 17 24 9 13 1016.9 1016.7 0.0
08/04:30am 23.5 21.2 11.9 48 6.6 S 15 24 8 13 1016.8 1016.6 0.0
08/04:00am 24.1 21.9 12.1 47 6.8 S 15 22 8 12 1016.6 1016.4 0.0
08/03:30am 24.9 22.7 12.2 45 7.3 S 15 22 8 12 1016.5 1016.3 0.0
08/03:00am 25.3 23.3 11.5 42 7.8 S 13 20 7 11 1016.5 1016.3 0.0
08/02:30am 25.3 23.6 11.1 41 8.0 SSW 11 15 6 8 1016.5 1016.3 0.0
08/02:00am 26.0 24.2 11.0 39 8.5 SSW 11 15 6 8 1016.5 1016.3 0.0
08/01:30am 27.1 24.5 10.8 36 9.2 SSW 15 24 8 13 1016.5 1016.3 0.0
08/01:00am 27.7 25.0 10.4 34 9.7 SW 15 26 8 14 1016.4 1016.2 0.0
08/12:30am 28.1 25.7 9.9 32 10.2 SW 13 20 7 11 1016.4 1016.2 0.0
08/12:00am 27.3 24.6 7.2 28 10.7 SSW 11 28 6 15 1016.3 1016.1 0.0
 
Date/Time
EDT
Temp
°C
App
Temp
°C
Dew
Point
Rel
Hum
%
Delta-T
°C
Wind Press
QNH
hPa
Press
MSL
hPa
Rain
since 9 am
mm
Dir
 
Spd
km/h
Gust
km/h
Spd
kts
Gust
kts
07/11:30pm 24.8 24.0 6.5 31 9.5 CALM 0 0 0 0 1015.7 1015.5 0.0
07/11:00pm 25.7 23.9 7.3 31 9.7 ENE 6 7 3 4 1015.5 1015.3 0.0
07/10:30pm 26.2 24.6 8.2 32 9.7 E 6 6 3 3 1015.2 1015.0 0.0
07/10:00pm 27.5 25.9 7.9 29 10.6 E 6 6 3 3 1015.0 1014.8 0.0
07/09:30pm 28.9 27.2 7.5 26 11.6 ESE 6 7 3 4 1014.7 1014.5 0.0
07/09:00pm 30.2 27.8 6.8 23 12.6 ESE 9 11 5 6 1014.3 1014.1 0.0
07/08:30pm 31.6 29.1 6.6 21 13.5 ESE 9 11 5 6 1014.1 1013.9 0.0
07/08:00pm 34.2 31.7 4.8 16 15.6 ESE 7 11 4 6 1013.8 1013.6 0.0
07/07:30pm 35.0 30.2 4.5 15 16.2 SE 19 26 10 14 1013.4 1013.2 0.0
07/07:00pm 35.9 31.2 3.2 13 17.1 SE 17 24 9 13 1013.1 1012.9 0.0
07/06:30pm 36.3 31.3 3.5 13 17.3 ESE 19 28 10 15 1012.9 1012.7 0.0
07/06:00pm 35.9 32.0 3.2 13 17.1 ESE 13 20 7 11 1012.9 1012.7 0.0
07/05:30pm 36.1 30.5 3.3 13 17.2 ESE 22 35 12 19 1012.9 1012.7 0.0
07/05:00pm 36.0 32.1 3.3 13 17.2 SSE 13 26 7 14 1013.0 1012.8 0.0
07/04:30pm 36.1 31.8 5.4 15 16.7 ESE 17 28 9 15 1013.3 1013.1 0.0
07/04:00pm 35.9 31.0 4.2 14 16.9 SE 19 28 10 15 1013.5 1013.3 0.0
07/03:30pm 35.3 30.3 4.8 15 16.3 ESE 20 32 11 17 1013.9 1013.7 0.0
07/03:00pm 35.2 31.4 5.6 16 16.0 SE 15 28 8 15 1014.2 1014.0 0.0
07/02:30pm 34.1 29.7 6.4 18 15.1 SE 19 32 10 17 1014.6 1014.4 0.0
07/02:00pm 34.7 30.4 6.9 18 15.3 SE 19 26 10 14 1015.0 1014.8 0.0
07/01:30pm 33.8 29.3 7.0 19 14.7 ESE 20 28 11 15 1015.3 1015.1 0.0
07/01:00pm 33.6 29.3 6.8 19 14.7 ESE 19 32 10 17 1015.5 1015.3 0.0
07/12:30pm 33.6 29.8 7.6 20 14.4 SE 17 28 9 15 1015.8 1015.6 0.0
07/12:00pm 32.7 30.0 8.9 23 13.4 ESE 13 24 7 13 1016.1 1015.9 0.0
07/11:30am 31.6 28.8 8.6 24 12.8 SE 13 20 7 11 1016.3 1016.1 0.0
07/11:00am 31.1 29.3 11.0 29 11.6 SE 11 17 6 9 1016.4 1016.2 0.0
07/10:30am 29.8 27.7 11.3 32 10.7 SE 13 17 7 9 1016.4 1016.2 0.0
07/10:00am 28.3 26.4 10.5 33 10.1 SSE 11 17 6 9 1016.3 1016.1 0.0
07/09:30am 27.4 25.1 10.6 35 9.5 SSE 13 17 7 9 1016.2 1016.0 0.0
07/09:00am 24.9 23.0 10.4 40 8.1 S 11 20 6 11 1016.0 1015.8 0.0
07/08:30am 24.3 23.2 10.6 42 7.6 E 7 9 4 5 1015.5 1015.3 0.0
07/08:00am 20.9 20.2 10.1 50 5.8 SSE 4 7 2 4 1015.1 1014.9 0.0
07/07:30am 17.7 17.5 9.1 57 4.5 CALM 0 0 0 0 1014.6 1014.4 0.0
07/07:00am 16.9 16.3 8.8 59 4.2 SE 2 6 1 3 1014.4 1014.2 0.0
07/06:30am 16.9 15.4 8.6 58 4.3 SSE 6 7 3 4 1014.2 1014.0 0.0
07/06:00am 17.1 15.6 8.5 57 4.4 S 6 7 3 4 1013.9 1013.7 0.0
07/05:30am 17.7 16.0 8.3 54 4.8 SSE 7 7 4 4 1013.7 1013.5 0.0
07/05:00am 18.1 16.5 8.1 52 5.1 SSE 6 9 3 5 1013.6 1013.4 0.0
07/04:30am 19.8 18.1 8.2 47 6.0 SE 7 9 4 5 1013.4 1013.2 0.0
07/04:00am 20.7 19.1 8.7 46 6.3 ESE 7 9 4 5 1013.3 1013.1 0.0
07/03:30am 21.6 19.5 8.1 42 7.1 ESE 9 11 5 6 1013.2 1013.0 0.0
07/03:00am 21.7 20.0 8.2 42 7.1 SE 7 9 4 5 1013.3 1013.1 0.0
07/02:30am 22.4 20.3 8.1 40 7.5 E 9 13 5 7 1013.2 1013.0 0.0
07/02:00am 22.1 20.0 8.2 41 7.3 ESE 9 11 5 6 1013.6 1013.4 0.0
07/01:30am 22.6 20.4 8.0 39 7.7 ESE 9 13 5 7 1013.8 1013.6 0.0
07/01:00am 23.2 21.0 7.7 37 8.1 E 9 13 5 7 1013.9 1013.7 0.0
07/12:30am 23.8 21.9 7.4 35 8.6 ESE 7 11 4 6 1014.1 1013.9 0.0
07/12:00am 24.6 22.4 7.7 34 8.9 E 9 11 5 6 1014.0 1013.8 0.0
 
Date/Time
EDT
Temp
°C
App
Temp
°C
Dew
Point
Rel
Hum
%
Delta-T
°C
Wind Press
QNH
hPa
Press
MSL
hPa
Rain
since 9 am
mm
Dir
 
Spd
km/h
Gust
km/h
Spd
kts
Gust
kts
06/11:30pm 24.9 22.4 8.0 34 9.0 ESE 11 13 6 7 1013.9 1013.7 0.0
06/11:00pm 26.2 23.6 7.7 31 9.9 E 11 15 6 8 1013.9 1013.7 0.0
06/10:30pm 26.6 23.8 7.1 29 10.3 E 11 13 6 7 1013.7 1013.5 0.0
06/10:00pm 27.1 24.3 7.0 28 10.7 ESE 11 15 6 8 1013.4 1013.2 0.0
06/09:30pm 27.0 24.3 7.5 29 10.4 ESE 11 15 6 8 1013.1 1012.9 0.0
06/09:00pm 27.7 25.2 8.1 29 10.6 SE 11 13 6 7 1012.8 1012.6 0.0
06/08:30pm 29.1 26.0 7.1 25 11.8 SE 13 17 7 9 1012.4 1012.2 0.0
06/08:00pm 31.1 27.5 6.9 22 13.1 SE 15 20 8 11 1012.0 1011.8 0.0
06/07:30pm 32.1 27.5 5.6 19 14.1 SSE 19 28 10 15 1011.5 1011.3 0.0
06/07:00pm 32.8 28.3 6.2 19 14.4 SE 19 28 10 15 1011.3 1011.1 0.0
06/06:30pm 32.9 28.4 7.0 20 14.2 SE 20 30 11 16 1011.2 1011.0 0.0
06/06:00pm 33.5 29.9 6.7 19 14.7 ESE 15 26 8 14 1011.1 1010.9 0.0
06/05:30pm 33.9 30.0 7.0 19 14.8 SE 17 28 9 15 1011.2 1011.0 0.0
06/05:00pm 34.1 29.5 6.4 18 15.1 SE 20 35 11 19 1011.4 1011.2 0.0
06/04:30pm 33.2 29.3 7.2 20 14.3 SSE 17 30 9 16 1011.7 1011.5 0.0
06/04:00pm 33.6 30.2 7.6 20 14.4 ESE 15 24 8 13 1012.1 1011.9 0.0
06/03:30pm 32.4 28.5 7.3 21 13.8 ESE 17 28 9 15 1012.5 1012.3 0.0
06/03:00pm 32.8 29.8 7.6 21 13.9 ESE 13 32 7 17 1012.7 1012.5 0.0
06/02:30pm 32.8 29.6 8.3 22 13.7 ENE 15 26 8 14 1013.1 1012.9 0.0
06/02:00pm 32.8 29.7 8.9 23 13.5 E 15 26 8 14 1013.6 1013.4 0.0
06/01:30pm 31.2 27.0 7.6 23 12.9 ESE 19 30 10 16 1014.0 1013.8 0.0
06/01:00pm 31.0 27.2 7.5 23 12.8 E 17 26 9 14 1014.5 1014.3 0.0
06/12:30pm 30.6 26.5 7.7 24 12.5 E 19 30 10 16 1014.8 1014.6 0.0
06/12:00pm 30.2 27.2 10.7 30 11.2 SE 17 26 9 14 1015.1 1014.9 0.0
06/11:30am 29.5 27.2 10.6 31 10.8 ENE 13 20 7 11 1015.2 1015.0 0.0
06/11:00am 28.7 25.6 10.4 32 10.4 ENE 17 24 9 13 1015.2 1015.0 0.0
06/10:30am 27.3 23.8 10.1 34 9.6 ENE 19 24 10 13 1015.2 1015.0 0.0
06/10:00am 26.6 23.0 9.9 35 9.3 NE 19 24 10 13 1015.1 1014.9 0.0
06/09:30am 24.9 20.8 10.0 39 8.2 ENE 22 33 12 18 1015.1 1014.9 0.0
06/09:00am 24.1 21.3 10.0 41 7.7 ENE 15 28 8 15 1015.1 1014.9 0.0
06/08:30am 22.5 19.6 9.6 44 7.0 E 15 20 8 11 1014.9 1014.7 0.0
06/08:00am 20.8 18.3 9.7 49 6.0 E 13 17 7 9 1014.7 1014.5 0.0
06/07:30am 18.7 17.3 9.5 55 4.9 ESE 7 11 4 6 1014.3 1014.1 0.0
06/07:00am 16.6 15.0 8.6 59 4.1 SE 7 7 4 4 1013.9 1013.7 0.0
06/06:30am 17.4 15.7 8.5 56 4.6 SE 7 7 4 4 1013.4 1013.2 0.0
06/06:00am 18.3 16.1 8.0 51 5.3 ESE 9 11 5 6 1013.1 1012.9 0.0
06/05:30am 18.2 16.4 7.9 51 5.3 E 7 11 4 6 1012.9 1012.7 0.0
06/05:00am 18.6 16.4 8.0 50 5.4 ESE 9 11 5 6 1013.0 1012.8 0.0
06/04:30am 19.7 16.9 7.1 44 6.4 ESE 11 13 6 7 1013.0 1012.8 0.0
06/04:00am 20.2 17.4 6.9 42 6.8 E 11 13 6 7 1013.0 1012.8 0.0
06/03:30am 20.2 17.7 6.5 41 6.9 ESE 9 13 5 7 1013.1 1012.9 0.0
06/03:00am 20.0 17.5 6.7 42 6.7 ESE 9 11 5 6 1013.4 1013.2 0.0
06/02:30am 20.5 18.4 6.5 40 7.1 SE 7 9 4 5 1013.3 1013.1 0.0
06/02:00am 21.0 18.9 6.5 39 7.3 ESE 7 9 4 5 1013.5 1013.3 0.0
06/01:30am 21.5 19.0 6.6 38 7.6 ESE 9 13 5 7 1013.7 1013.5 0.0
06/01:00am 20.7 18.7 6.3 39 7.2 ESE 6 7 3 4 1013.9 1013.7 0.0
06/12:30am 21.7 19.4 5.6 35 8.1 ESE 7 7 4 4 1013.9 1013.7 0.0
06/12:00am 23.4 20.7 5.8 32 8.9 ESE 9 11 5 6 1014.0 1013.8 0.0
 
Date/Time
EDT
Temp
°C
App
Temp
°C
Dew
Point
Rel
Hum
%
Delta-T
°C
Wind Press
QNH
hPa
Press
MSL
hPa
Rain
since 9 am
mm
Dir
 
Spd
km/h
Gust
km/h
Spd
kts
Gust
kts
05/11:30pm 23.5 20.8 5.4 31 9.1 SE 9 11 5 6 1014.0 1013.8 0.0
05/11:00pm 24.1 21.4 5.5 30 9.4 SE 9 11 5 6 1014.1 1013.9 0.0
05/10:30pm 24.0 21.3 5.4 30 9.4 SE 9 11 5 6 1013.9 1013.7 0.0
05/10:00pm 24.8 22.1 5.6 29 9.8 SE 9 11 5 6 1013.7 1013.5 0.0
05/09:30pm 25.7 22.9 5.3 27 10.4 SE 9 13 5 7 1013.4 1013.2 0.0
05/09:00pm 27.2 24.0 4.9 24 11.4 SE 11 15 6 8 1013.2 1013.0 0.0
05/08:30pm 28.9 25.2 4.4 21 12.6 SE 13 17 7 9 1012.8 1012.6 0.0
05/08:00pm 30.9 25.9 3.8 18 13.9 SE 19 28 10 15 1012.4 1012.2 0.0
05/07:30pm 32.0 27.0 4.7 18 14.3 SE 20 28 11 15 1012.0 1011.8 0.0
05/07:00pm 32.6 27.6 3.5 16 15.0 SE 19 30 10 16 1011.7 1011.5 0.0
05/06:30pm 32.8 27.2 3.7 16 15.1 SE 22 32 12 17 1011.7 1011.5 0.0
05/06:00pm 32.9 27.1 4.6 17 14.9 SE 24 32 13 17 1011.8 1011.6 0.0
05/05:30pm 32.8 26.7 4.6 17 14.8 SE 26 35 14 19 1012.0 1011.8 0.0
05/05:00pm 33.2 28.4 7.2 20 14.3 SE 22 33 12 18 1012.3 1012.1 0.0

Other Formats:

Comma delimited format used in spreadsheet applications
http://www.bom.gov.au/fwo/IDV60801/IDV60801.94693.axf

JavaScript Object Notation format (JSON) in row-major order
http://www.bom.gov.au/fwo/IDV60801/IDV60801.94693.json